Time,TemperatureF,DewpointF,PressureIn,WindDirection,WindDirectionDegrees,WindSpeedMPH,WindSpeedGustMPH,Humidity,HourlyPrecipIn,Conditions,Clouds,dailyrainin,SoftwareType,DateUTC
2013-01-21 00:02:00,37.0,21.0,30.16,WNW,293,0.0,0.0,53,0.00,,,0.00,,2013-01-21 08:02:00,
2013-01-21 00:22:00,37.0,21.0,30.16,WNW,293,0.0,0.0,53,0.00,,,0.00,,2013-01-21 08:22:00,
2013-01-21 00:32:00,37.0,21.0,30.16,WNW,293,0.0,0.0,52,0.00,,,0.00,,2013-01-21 08:32:00,
2013-01-21 00:52:00,36.0,21.0,30.16,WNW,293,0.0,0.0,53,0.00,,,0.00,,2013-01-21 08:52:00,
2013-01-21 01:02:00,36.0,21.0,30.15,WNW,293,0.0,0.0,53,0.00,,,0.00,,2013-01-21 09:02:00,
2013-01-21 01:22:00,35.0,20.0,30.17,WNW,293,0.0,0.0,53,0.00,,,0.00,,2013-01-21 09:22:00,
2013-01-21 01:32:00,35.0,21.0,30.16,WNW,293,0.0,0.0,56,0.00,,,0.00,,2013-01-21 09:32:00,
2013-01-21 01:52:00,35.0,20.0,30.16,WNW,293,0.0,0.0,55,0.00,,,0.00,,2013-01-21 09:52:00,
2013-01-21 02:02:00,35.0,21.0,30.17,SW,225,0.0,0.0,56,0.00,,,0.00,,2013-01-21 10:02:00,
2013-01-21 02:22:00,35.0,21.0,30.16,SW,225,0.0,0.0,57,0.00,,,0.00,,2013-01-21 10:22:00,
2013-01-21 02:32:00,34.0,20.0,30.15,SW,225,0.0,0.0,57,0.00,,,0.00,,2013-01-21 10:32:00,
2013-01-21 02:52:00,34.0,20.0,30.15,SW,225,0.0,0.0,56,0.00,,,0.00,,2013-01-21 10:52:00,
2013-01-21 03:02:00,34.0,20.0,30.16,NE,45,14.0,14.0,57,0.00,,,0.00,,2013-01-21 11:02:00,
2013-01-21 03:22:00,34.0,20.0,30.16,SW,225,0.0,14.0,57,0.00,,,0.00,,2013-01-21 11:22:00,
2013-01-21 03:32:00,33.0,19.0,30.15,SW,225,0.0,0.0,57,0.00,,,0.00,,2013-01-21 11:32:00,
2013-01-21 04:02:00,34.0,22.0,30.14,SE,135,0.0,0.0,62,0.00,,,0.00,,2013-01-21 12:02:00,
2013-01-21 04:22:00,34.0,22.0,30.13,SSE,158,0.0,0.0,61,0.00,,,0.00,,2013-01-21 12:22:00,
2013-01-21 04:32:00,34.0,22.0,30.13,SSE,158,0.0,0.0,61,0.00,,,0.00,,2013-01-21 12:32:00,
2013-01-21 04:53:00,33.0,21.0,30.14,SSE,158,0.0,0.0,60,0.00,,,0.00,,2013-01-21 12:53:00,
2013-01-21 05:02:00,33.0,21.0,30.13,SSE,158,0.0,0.0,60,0.00,,,0.00,,2013-01-21 13:02:00,
2013-01-21 05:22:00,33.0,21.0,30.14,SSE,158,0.0,0.0,61,0.00,,,0.00,,2013-01-21 13:22:00,
2013-01-21 05:32:00,33.0,21.0,30.14,SE,135,0.0,0.0,61,0.00,,,0.00,,2013-01-21 13:32:00,
2013-01-21 05:53:00,32.0,20.0,30.14,SSE,158,0.0,0.0,62,0.00,,,0.00,,2013-01-21 13:53:00,
2013-01-21 06:02:00,32.0,20.0,30.14,SSE,158,0.0,0.0,61,0.00,,,0.00,,2013-01-21 14:02:00,
2013-01-21 06:22:00,32.0,20.0,30.13,SSE,158,0.0,0.0,61,0.00,,,0.00,,2013-01-21 14:22:00,
2013-01-21 06:32:00,32.0,20.0,30.13,SSE,158,0.0,0.0,61,0.00,,,0.00,,2013-01-21 14:32:00,
2013-01-21 06:52:00,32.0,20.0,30.13,SSE,158,0.0,0.0,61,0.00,,,0.00,,2013-01-21 14:52:00,
2013-01-21 07:03:00,31.0,20.0,30.12,SSE,158,0.0,0.0,62,0.00,,,0.00,,2013-01-21 15:03:00,
2013-01-21 07:22:00,31.0,19.0,30.12,SSE,158,0.0,0.0,61,0.00,,,0.00,,2013-01-21 15:22:00,
2013-01-21 07:32:00,31.0,19.0,30.12,SSE,158,0.0,0.0,60,0.00,,,0.00,,2013-01-21 15:32:00,
2013-01-21 07:53:00,31.0,19.0,30.11,SSE,158,0.0,0.0,61,0.00,,,0.00,,2013-01-21 15:53:00,
2013-01-21 08:02:00,31.0,20.0,30.12,NW,315,0.0,0.0,64,0.00,,,0.00,,2013-01-21 16:02:00,
2013-01-21 08:23:00,31.0,21.0,30.13,WNW,293,0.0,0.0,65,0.00,,,0.00,,2013-01-21 16:23:00,
2013-01-21 08:32:00,31.0,21.0,30.13,WNW,293,0.0,0.0,65,0.00,,,0.00,,2013-01-21 16:32:00,
2013-01-21 08:53:00,33.0,23.0,30.15,WNW,293,0.0,0.0,67,0.00,,,0.00,,2013-01-21 16:53:00,
2013-01-21 09:02:00,33.0,24.0,30.15,NW,315,0.0,0.0,68,0.00,,,0.00,,2013-01-21 17:02:00,
2013-01-21 09:12:00,33.0,24.0,30.15,NW,315,0.0,0.0,68,0.00,,,0.00,,2013-01-21 17:12:00,
2013-01-21 09:22:00,34.0,25.0,30.15,NW,315,0.0,0.0,69,0.00,,,0.00,,2013-01-21 17:22:00,
2013-01-21 09:32:00,36.0,27.0,30.16,NW,315,0.0,0.0,70,0.00,,,0.00,,2013-01-21 17:32:00,
2013-01-21 09:42:00,36.0,27.0,30.16,NW,315,0.0,0.0,70,0.00,,,0.00,,2013-01-21 17:42:00,
2013-01-21 09:52:00,39.0,31.0,30.17,WSW,248,0.0,0.0,73,0.00,,,0.00,,2013-01-21 17:52:00,
2013-01-21 10:02:00,42.0,34.0,30.17,WSW,248,0.0,0.0,74,0.00,,,0.00,,2013-01-21 18:02:00,
2013-01-21 10:12:00,42.0,34.0,30.17,WSW,248,0.0,0.0,74,0.00,,,0.00,,2013-01-21 18:12:00,
2013-01-21 10:22:00,47.0,35.0,30.17,WSW,248,1.0,1.0,64,0.00,,,0.00,,2013-01-21 18:22:00,
2013-01-21 10:33:00,49.0,34.0,30.17,WSW,248,0.0,1.0,57,0.00,,,0.00,,2013-01-21 18:33:00,
2013-01-21 10:42:00,49.0,34.0,30.17,WSW,248,0.0,1.0,57,0.00,,,0.00,,2013-01-21 18:42:00,
2013-01-21 10:53:00,50.0,35.0,30.17,WSW,248,1.0,4.0,56,0.00,,,0.00,,2013-01-21 18:53:00,
2013-01-21 11:02:00,51.0,34.0,30.17,WSW,248,0.0,2.0,53,0.00,,,0.00,,2013-01-21 19:02:00,
2013-01-21 11:12:00,51.0,34.0,30.17,WSW,248,0.0,2.0,53,0.00,,,0.00,,2013-01-21 19:12:00,
2013-01-21 11:22:00,52.0,35.0,30.17,WSW,248,0.0,0.0,52,0.00,,,0.00,,2013-01-21 19:22:00,
2013-01-21 11:33:00,53.0,35.0,30.17,WSW,248,2.0,2.0,50,0.00,,,0.00,,2013-01-21 19:33:00,
2013-01-21 11:42:00,53.0,35.0,30.17,WSW,248,2.0,2.0,50,0.00,,,0.00,,2013-01-21 19:42:00,
2013-01-21 11:53:00,54.0,35.0,30.16,WSW,248,0.0,2.0,49,0.00,,,0.00,,2013-01-21 19:53:00,
2013-01-21 12:02:00,56.0,37.0,30.15,WSW,248,0.0,0.0,49,0.00,,,0.00,,2013-01-21 20:02:00,
2013-01-21 12:12:00,56.0,37.0,30.15,WSW,248,0.0,0.0,49,0.00,,,0.00,,2013-01-21 20:12:00,
2013-01-21 12:22:00,57.0,37.0,30.14,WNW,293,0.0,0.0,47,0.00,,,0.00,,2013-01-21 20:22:00,
2013-01-21 12:32:00,59.0,37.0,30.14,NNW,338,0.0,5.0,43,0.00,,,0.00,,2013-01-21 20:32:00,
2013-01-21 12:42:00,59.0,37.0,30.14,NNW,338,0.0,5.0,43,0.00,,,0.00,,2013-01-21 20:42:00,
2013-01-21 12:52:00,60.0,37.0,30.13,NW,315,0.0,0.0,42,0.00,,,0.00,,2013-01-21 20:52:00,
2013-01-21 13:03:00,61.0,37.0,30.13,NW,315,0.0,0.0,41,0.00,,,0.00,,2013-01-21 21:03:00,
2013-01-21 13:12:00,61.0,37.0,30.13,NW,315,0.0,0.0,41,0.00,,,0.00,,2013-01-21 21:12:00,
2013-01-21 13:22:00,64.0,38.0,30.13,NNW,338,4.0,4.0,38,0.00,,,0.00,,2013-01-21 21:22:00,
2013-01-21 13:32:00,65.0,38.0,30.13,WNW,293,2.0,4.0,37,0.00,,,0.00,,2013-01-21 21:32:00,
2013-01-21 13:42:00,65.0,38.0,30.13,WNW,293,2.0,4.0,37,0.00,,,0.00,,2013-01-21 21:42:00,
2013-01-21 13:53:00,71.0,42.0,30.12,NNW,338,4.0,4.0,35,0.00,,,0.00,,2013-01-21 21:53:00,
2013-01-21 14:02:00,71.0,39.0,30.12,NW,326,2.0,2.0,31,0.00,,,0.00,,2013-01-21 22:02:00,
2013-01-21 14:22:00,74.0,39.0,30.12,NNW,338,1.0,2.0,28,0.00,,,0.00,,2013-01-21 22:22:00,
2013-01-21 14:32:00,76.0,38.0,30.11,North,0,0.0,4.0,25,0.00,,,0.00,,2013-01-21 22:32:00,
2013-01-21 14:52:00,80.0,38.0,30.11,NNW,338,2.0,4.0,22,0.00,,,0.00,,2013-01-21 22:52:00,
2013-01-21 15:03:00,81.0,37.0,30.12,SE,124,4.0,4.0,21,0.00,,,0.00,,2013-01-21 23:03:00,
2013-01-21 15:22:00,84.0,37.0,30.11,NNW,338,2.0,2.0,19,0.00,,,0.00,,2013-01-21 23:22:00,
2013-01-21 15:32:00,85.0,38.0,30.11,NNW,338,3.0,3.0,19,0.00,,,0.00,,2013-01-21 23:32:00,
2013-01-21 15:52:00,85.0,38.0,30.11,NNW,338,1.0,1.0,19,0.00,,,0.00,,2013-01-21 23:52:00,
2013-01-21 16:02:00,85.0,38.0,30.11,NNW,338,0.0,1.0,19,0.00,,,0.00,,2013-01-22 00:02:00,
2013-01-21 16:22:00,80.0,34.0,30.10,NNW,338,3.0,3.0,19,0.00,,,0.00,,2013-01-22 00:22:00,
2013-01-21 16:32:00,76.0,31.0,30.10,North,0,1.0,3.0,19,0.00,,,0.00,,2013-01-22 00:32:00,
2013-01-21 16:53:00,71.0,30.0,30.10,NNW,338,1.0,3.0,22,0.00,,,0.00,,2013-01-22 00:53:00,
2013-01-21 17:02:00,68.0,31.0,30.10,NNW,338,0.0,0.0,25,0.00,,,0.00,,2013-01-22 01:02:00,
2013-01-21 17:12:00,68.0,31.0,30.10,NNW,338,0.0,0.0,25,0.00,,,0.00,,2013-01-22 01:12:00,
2013-01-21 17:22:00,67.0,32.0,30.10,NNW,338,0.0,0.0,27,0.00,,,0.00,,2013-01-22 01:22:00,
2013-01-21 17:32:00,63.0,30.0,30.10,NNW,338,0.0,0.0,29,0.00,,,0.00,,2013-01-22 01:32:00,
2013-01-21 17:42:00,63.0,30.0,30.10,NNW,338,0.0,0.0,29,0.00,,,0.00,,2013-01-22 01:42:00,
2013-01-21 17:52:00,60.0,28.0,30.10,NNW,338,0.0,0.0,29,0.00,,,0.00,,2013-01-22 01:52:00,
2013-01-21 18:02:00,59.0,28.0,30.10,NNW,338,0.0,0.0,31,0.00,,,0.00,,2013-01-22 02:02:00,
2013-01-21 18:22:00,56.0,27.0,30.10,NNW,338,0.0,0.0,32,0.00,,,0.00,,2013-01-22 02:22:00,
2013-01-21 18:32:00,55.0,27.0,30.09,NNW,338,0.0,0.0,34,0.00,,,0.00,,2013-01-22 02:32:00,
2013-01-21 18:53:00,54.0,27.0,30.10,NNW,338,0.0,0.0,35,0.00,,,0.00,,2013-01-22 02:53:00,
2013-01-21 19:02:00,52.0,27.0,30.10,NNW,338,0.0,0.0,38,0.00,,,0.00,,2013-01-22 03:02:00,
2013-01-21 19:22:00,51.0,28.0,30.10,NNW,338,0.0,0.0,40,0.00,,,0.00,,2013-01-22 03:22:00,
2013-01-21 19:32:00,50.0,28.0,30.10,WSW,248,0.0,0.0,42,0.00,,,0.00,,2013-01-22 03:32:00,
2013-01-21 19:52:00,48.0,27.0,30.09,SW,225,0.0,0.0,43,0.00,,,0.00,,2013-01-22 03:52:00,
2013-01-21 20:02:00,47.0,26.0,30.10,SW,225,0.0,0.0,44,0.00,,,0.00,,2013-01-22 04:02:00,
2013-01-21 20:22:00,46.0,25.0,30.10,SW,225,0.0,0.0,44,0.00,,,0.00,,2013-01-22 04:22:00,
2013-01-21 20:32:00,45.0,25.0,30.09,SW,225,0.0,0.0,46,0.00,,,0.00,,2013-01-22 04:32:00,
2013-01-21 20:52:00,44.0,25.0,30.10,SW,225,0.0,0.0,46,0.00,,,0.00,,2013-01-22 04:52:00,
2013-01-21 21:03:00,43.0,24.0,30.10,SW,225,0.0,0.0,47,0.00,,,0.00,,2013-01-22 05:03:00,
2013-01-21 21:22:00,42.0,24.0,30.11,SW,225,0.0,0.0,48,0.00,,,0.00,,2013-01-22 05:22:00,
2013-01-21 21:42:00,42.0,25.0,30.11,SW,225,0.0,0.0,51,0.00,,,0.00,,2013-01-22 05:42:00,
2013-01-21 21:52:00,41.0,24.0,30.12,SW,225,0.0,0.0,51,0.00,,,0.00,,2013-01-22 05:52:00,
2013-01-21 22:02:00,40.0,23.0,30.12,SW,225,0.0,0.0,51,0.00,,,0.00,,2013-01-22 06:02:00,
2013-01-21 22:32:00,39.0,23.0,30.13,SW,225,0.0,0.0,52,0.00,,,0.00,,2013-01-22 06:32:00,
2013-01-21 22:52:00,38.0,22.0,30.13,SW,225,0.0,0.0,52,0.00,,,0.00,,2013-01-22 06:52:00,
2013-01-21 23:02:00,38.0,22.0,30.13,SW,225,0.0,0.0,52,0.00,,,0.00,,2013-01-22 07:02:00,
2013-01-21 23:22:00,38.0,22.0,30.14,SW,225,0.0,0.0,52,0.00,,,0.00,,2013-01-22 07:22:00,
2013-01-21 23:32:00,37.0,22.0,30.14,SW,225,0.0,0.0,54,0.00,,,0.00,,2013-01-22 07:32:00,
2013-01-21 23:52:00,37.0,22.0,30.13,SW,225,0.0,0.0,54,0.00,,,0.00,,2013-01-22 07:52:00,